Time;durP1;ratioP1;P1;durP2;ratioP2;P2;SDS_P1;SDS_P2;PMS_P1;PMS_P2;Temp;Humidity;BMP_temperature;BMP_pressure;BME280_temperature;BME280_humidity;BME280_pressure;Samples;Min_cycle;Max_cycle;Signal;HPM_P1;HPM_P2
2022/04/28 00:02:11;;;;;;;18.50;6.18;;;9.10;99.90;;;;;;5034370;28;20033;-75
2022/04/28 00:04:37;;;;;;;20.75;6.78;;;9.20;99.90;;;;;;5034282;28;20029;-75
2022/04/28 00:07:03;;;;;;;24.88;6.80;;;9.10;99.90;;;;;;5034047;28;20025;-75
2022/04/28 00:09:29;;;;;;;26.40;6.32;;;9.10;99.90;;;;;;5034144;28;20033;-77
2022/04/28 00:11:54;;;;;;;17.33;6.05;;;9.10;99.90;;;;;;5034467;28;20030;-76
2022/04/28 00:14:20;;;;;;;19.30;5.57;;;9.00;99.90;;;;;;5033945;28;20111;-75
2022/04/28 00:16:46;;;;;;;22.77;6.97;;;9.00;99.90;;;;;;5034144;28;20060;-76
2022/04/28 00:19:12;;;;;;;20.15;6.28;;;9.00;99.90;;;;;;5034856;28;20033;-76
2022/04/28 00:21:38;;;;;;;24.60;6.68;;;9.00;99.90;;;;;;5035279;28;20025;-76
2022/04/28 00:24:04;;;;;;;21.80;6.55;;;8.90;99.90;;;;;;5035934;28;20040;-75
2022/04/28 00:26:29;;;;;;;21.83;6.90;;;8.90;99.90;;;;;;5039228;28;20033;-76
2022/04/28 00:28:55;;;;;;;26.13;6.78;;;8.80;99.90;;;;;;5040797;28;20029;-75
2022/04/28 00:31:21;;;;;;;22.15;7.25;;;8.80;99.90;;;;;;5042933;28;20021;-75
2022/04/28 00:33:48;;;;;;;19.42;6.60;;;8.80;99.90;;;;;;5019817;28;20116;-76
2022/04/28 00:36:17;;;;;;;23.27;6.53;;;8.80;99.90;;;;;;5040236;28;20077;-75
2022/04/28 00:38:43;;;;;;;20.95;5.80;;;8.70;99.90;;;;;;5048132;28;20028;-76
2022/04/28 00:41:08;;;;;;;18.67;5.88;;;8.70;99.90;;;;;;5045725;28;20026;-75
2022/04/28 00:43:48;;;;;;;25.85;6.68;;;8.70;99.90;;;;;;5038074;28;20152;-77
2022/04/28 00:46:14;;;;;;;23.75;6.68;;;8.70;99.90;;;;;;5033340;28;20087;-75
2022/04/28 00:51:24;;;;;;;16.73;6.30;;;8.70;99.90;;;;;;5034293;28;20034;-75
2022/04/28 00:53:51;;;;;;;16.30;5.47;;;8.60;99.90;;;;;;5033526;28;20063;-76
2022/04/28 00:56:17;;;;;;;22.20;7.45;;;8.60;99.90;;;;;;5033801;28;20025;-75
2022/04/28 00:58:43;;;;;;;23.90;6.32;;;8.50;99.90;;;;;;5033935;28;20052;-76
2022/04/28 01:01:08;;;;;;;24.27;6.20;;;8.50;99.90;;;;;;5033270;28;20032;-75
2022/04/28 01:03:34;;;;;;;25.55;6.55;;;8.50;99.90;;;;;;5033070;28;20095;-76
2022/04/28 01:06:02;;;;;;;23.80;7.00;;;8.50;99.90;;;;;;5033047;28;20091;-75
2022/04/28 01:08:27;;;;;;;20.42;6.43;;;8.40;99.90;;;;;;5033113;28;20041;-76
2022/04/28 01:10:54;;;;;;;19.20;6.43;;;8.40;99.90;;;;;;5033687;28;20475;-76
2022/04/28 01:13:19;;;;;;;26.60;7.25;;;8.40;99.90;;;;;;5024376;28;20494;-74
2022/04/28 01:15:47;;;;;;;22.98;6.68;;;8.30;99.90;;;;;;5043800;28;20029;-75
2022/04/28 01:18:13;;;;;;;18.80;6.20;;;8.30;99.90;;;;;;5039152;28;20490;-77
2022/04/28 01:20:39;;;;;;;24.50;6.45;;;8.30;99.90;;;;;;5015805;28;20030;-75
2022/04/28 01:23:05;;;;;;;19.35;6.03;;;8.30;99.90;;;;;;5032965;28;20021;-77
2022/04/28 01:25:31;;;;;;;30.33;7.03;;;8.30;99.90;;;;;;5032400;28;20395;-75
2022/04/28 01:27:57;;;;;;;19.45;6.25;;;8.30;99.90;;;;;;5033321;28;20029;-76
2022/04/28 01:30:23;;;;;;;18.42;7.10;;;8.30;99.90;;;;;;5034198;28;20469;-75
2022/04/28 01:32:49;;;;;;;24.25;7.10;;;8.20;99.90;;;;;;5036648;28;20052;-74
2022/04/28 01:35:14;;;;;;;16.60;6.78;;;8.20;99.90;;;;;;5039067;28;20394;-75
2022/04/28 01:37:41;;;;;;;23.08;6.80;;;8.20;99.90;;;;;;5041332;28;20399;-74
2022/04/28 01:40:11;;;;;;;19.88;6.88;;;8.10;99.90;;;;;;5042119;28;20491;-76
2022/04/28 01:42:38;;;;;;;27.50;6.70;;;8.10;99.90;;;;;;5042681;28;20362;-75
2022/04/28 01:45:06;;;;;;;23.67;6.75;;;8.10;99.90;;;;;;5038210;28;20025;-75
2022/04/28 01:47:31;;;;;;;17.13;6.15;;;8.00;99.90;;;;;;5036590;28;20032;-74
2022/04/28 01:49:57;;;;;;;25.25;6.72;;;8.00;99.90;;;;;;5038536;28;20030;-74
2022/04/28 01:55:07;;;;;;;23.27;7.10;;;7.90;99.90;;;;;;5037244;28;20168;-75
2022/04/28 01:57:32;;;;;;;22.65;7.10;;;7.90;99.90;;;;;;5039479;28;20483;-76
2022/04/28 01:59:59;;;;;;;22.40;7.25;;;7.80;99.90;;;;;;5035976;28;20429;-76
2022/04/28 02:02:24;;;;;;;18.20;6.55;;;7.80;99.90;;;;;;5032374;28;20045;-75
2022/04/28 02:04:50;;;;;;;22.70;7.53;;;7.80;99.90;;;;;;5031570;28;20084;-75
2022/04/28 02:07:16;;;;;;;28.33;8.27;;;7.80;99.90;;;;;;5031191;28;20493;-75
2022/04/28 02:09:45;;;;;;;24.17;7.00;;;7.80;99.90;;;;;;5031933;28;20033;-76
2022/04/28 02:12:13;;;;;;;26.27;7.47;;;7.70;99.90;;;;;;5032277;28;20032;-76
2022/04/28 02:14:39;;;;;;;32.17;8.65;;;7.70;99.90;;;;;;5031699;28;20025;-75
2022/04/28 02:17:05;;;;;;;20.38;7.55;;;7.70;99.90;;;;;;5031716;28;20097;-77
2022/04/28 02:19:31;;;;;;;22.73;8.23;;;7.70;99.90;;;;;;5032240;28;20018;-76
2022/04/28 02:21:57;;;;;;;26.45;8.82;;;7.70;99.90;;;;;;5032384;28;20646;-75
2022/04/28 02:24:23;;;;;;;29.92;10.15;;;7.70;99.90;;;;;;5034934;28;20164;-76
2022/04/28 02:26:48;;;;;;;29.80;11.60;;;7.60;99.90;;;;;;5018386;28;20128;-76
2022/04/28 02:29:14;;;;;;;32.25;11.57;;;7.60;99.90;;;;;;5038253;28;20029;-78
2022/04/28 02:31:39;;;;;;;28.08;12.27;;;7.60;99.90;;;;;;5035015;28;20033;-76
2022/04/28 02:34:05;;;;;;;35.10;11.98;;;7.60;99.90;;;;;;5034333;28;20064;-75
2022/04/28 02:36:32;;;;;;;29.75;13.57;;;7.60;99.90;;;;;;5034636;28;20069;-77
2022/04/28 02:38:57;;;;;;;48.42;15.80;;;7.60;99.90;;;;;;5014927;28;20021;-75
2022/04/28 02:41:23;;;;;;;51.53;14.13;;;7.60;99.90;;;;;;5031532;28;20108;-77
2022/04/28 02:43:49;;;;;;;34.13;11.68;;;7.60;99.90;;;;;;5014028;28;20029;-76
2022/04/28 02:46:15;;;;;;;24.50;10.43;;;7.60;99.90;;;;;;5031248;28;20475;-76
2022/04/28 02:48:41;;;;;;;25.15;11.07;;;7.60;99.90;;;;;;5032686;28;20033;-77
2022/04/28 02:51:06;;;;;;;30.20;12.38;;;7.60;99.90;;;;;;5031649;28;20021;-76
2022/04/28 02:53:33;;;;;;;27.63;12.15;;;7.50;99.90;;;;;;5031897;28;20025;-75
2022/04/28 02:55:58;;;;;;;42.80;16.25;;;7.50;99.90;;;;;;5031211;28;20040;-75
2022/04/28 02:58:24;;;;;;;41.47;16.77;;;7.50;99.90;;;;;;5031064;28;20475;-75
2022/04/28 03:00:49;;;;;;;34.05;14.07;;;7.50;99.90;;;;;;5031368;28;20467;-77
2022/04/28 03:03:15;;;;;;;39.92;15.23;;;7.40;99.90;;;;;;5033709;28;20471;-78
2022/04/28 03:11:09;;;;;;;28.67;13.73;;;7.40;99.90;;;;;;5039903;28;20263;-76
2022/04/28 03:13:35;;;;;;;32.42;13.43;;;7.40;99.90;;;;;;5039853;28;20399;-76
2022/04/28 03:16:02;;;;;;;28.30;13.10;;;7.40;99.90;;;;;;5036411;28;20030;-76
2022/04/28 03:18:27;;;;;;;35.25;14.15;;;7.30;99.90;;;;;;5037432;28;20041;-76
2022/04/28 03:20:54;;;;;;;35.95;15.60;;;7.30;99.90;;;;;;5036111;28;20561;-75
2022/04/28 03:23:20;;;;;;;33.97;15.38;;;7.30;99.90;;;;;;5035727;28;20022;-75
2022/04/28 03:25:45;;;;;;;36.08;14.57;;;7.30;99.90;;;;;;5035960;28;20021;-76
2022/04/28 03:28:11;;;;;;;28.63;13.82;;;7.30;99.90;;;;;;5035812;28;20052;-76
2022/04/28 03:30:36;;;;;;;37.05;15.50;;;7.20;99.90;;;;;;5036194;28;20437;-75
2022/04/28 03:33:02;;;;;;;42.00;15.60;;;7.20;99.90;;;;;;5035602;28;20056;-76
2022/04/28 03:35:28;;;;;;;30.88;15.50;;;7.20;99.90;;;;;;5035668;28;20442;-77
2022/04/28 03:37:53;;;;;;;36.72;15.73;;;7.20;99.90;;;;;;5035663;28;20018;-77
2022/04/28 03:40:19;;;;;;;29.10;15.73;;;7.10;99.90;;;;;;5037216;28;20034;-75
2022/04/28 03:42:47;;;;;;;34.38;16.30;;;7.10;99.90;;;;;;5038746;28;20045;-78
2022/04/28 03:45:13;;;;;;;37.20;17.17;;;7.00;99.90;;;;;;5038020;28;20460;-76
2022/04/28 03:47:39;;;;;;;35.70;16.92;;;7.00;99.90;;;;;;5037236;28;20129;-76
2022/04/28 03:50:05;;;;;;;46.92;18.45;;;7.00;99.90;;;;;;5036411;28;20025;-77
2022/04/28 03:52:31;;;;;;;46.70;18.50;;;7.00;99.90;;;;;;5036097;28;20079;-77
2022/04/28 03:54:56;;;;;;;45.95;20.85;;;7.00;99.90;;;;;;5041821;28;20052;-77
2022/04/28 03:57:22;;;;;;;43.65;20.33;;;7.00;99.90;;;;;;5035505;28;20095;-75
2022/04/28 03:59:47;;;;;;;39.95;19.60;;;7.00;99.90;;;;;;5036520;28;20021;-77
2022/04/28 04:02:13;;;;;;;35.70;18.58;;;7.00;99.90;;;;;;5038829;28;20049;-77
2022/04/28 04:04:39;;;;;;;45.03;20.08;;;7.00;99.90;;;;;;5039292;28;20025;-78
2022/04/28 04:07:05;;;;;;;49.70;20.02;;;7.00;99.90;;;;;;5037193;28;20463;-77
2022/04/28 04:09:31;;;;;;;41.22;19.30;;;7.00;99.90;;;;;;5038973;28;20056;-77
2022/04/28 04:11:56;;;;;;;41.58;20.13;;;7.10;99.90;;;;;;5038677;28;20029;-78
2022/04/28 04:14:22;;;;;;;52.83;22.85;;;7.00;99.90;;;;;;5020996;28;20093;-77
2022/04/28 04:16:47;;;;;;;41.72;18.88;;;7.10;99.90;;;;;;5038992;28;20022;-78
2022/04/28 04:19:13;;;;;;;45.03;20.77;;;7.10;99.90;;;;;;5038523;28;20017;-77
2022/04/28 04:21:39;;;;;;;40.15;20.63;;;7.10;99.90;;;;;;5036305;28;20036;-77
2022/04/28 04:24:05;;;;;;;47.03;21.70;;;7.10;99.90;;;;;;5038190;28;20385;-78
2022/04/28 04:26:31;;;;;;;44.13;20.13;;;7.10;99.90;;;;;;5039552;28;20009;-76
2022/04/28 04:28:57;;;;;;;42.55;21.35;;;7.10;99.90;;;;;;5037343;28;20446;-77
2022/04/28 04:34:06;;;;;;;48.28;21.42;;;7.10;99.90;;;;;;5036820;28;20501;-77
2022/04/28 04:36:32;;;;;;;44.55;20.92;;;7.20;99.90;;;;;;5039450;28;20025;-77
2022/04/28 04:38:57;;;;;;;40.45;19.33;;;7.20;99.90;;;;;;5038321;28;20075;-77
2022/04/28 04:41:23;;;;;;;40.20;19.90;;;7.20;99.90;;;;;;5042835;28;20025;-78
2022/04/28 04:43:48;;;;;;;35.70;19.77;;;7.20;99.90;;;;;;5041778;28;20037;-78
2022/04/28 04:46:14;;;;;;;37.15;18.90;;;7.30;99.90;;;;;;5046150;28;20080;-77
2022/04/28 04:48:39;;;;;;;48.65;20.58;;;7.30;99.90;;;;;;5044468;28;20033;-78
2022/04/28 04:51:05;;;;;;;41.60;18.42;;;7.30;99.90;;;;;;5037695;28;20026;-77
2022/04/28 04:53:30;;;;;;;37.28;18.70;;;7.30;99.90;;;;;;5035637;28;20018;-77
2022/04/28 04:55:56;;;;;;;38.47;17.02;;;7.40;99.90;;;;;;5034905;28;20021;-77
2022/04/28 04:58:21;;;;;;;37.00;17.55;;;7.40;99.90;;;;;;5035779;28;20025;-77
2022/04/28 05:00:48;;;;;;;44.03;19.38;;;7.40;99.90;;;;;;5035106;28;20029;-77
2022/04/28 05:03:14;;;;;;;46.67;19.73;;;7.40;99.90;;;;;;5039825;28;20148;-78
2022/04/28 05:05:40;;;;;;;44.63;19.02;;;7.50;99.90;;;;;;5035675;28;20088;-76
2022/04/28 05:08:06;;;;;;;39.70;19.42;;;7.50;99.90;;;;;;5035863;28;20021;-76
2022/04/28 05:10:31;;;;;;;41.97;18.65;;;7.60;99.90;;;;;;5035444;28;20475;-77
2022/04/28 05:12:57;;;;;;;42.03;18.80;;;7.70;99.90;;;;;;5035473;28;20083;-76
2022/04/28 05:15:23;;;;;;;46.72;19.20;;;7.80;99.90;;;;;;5034609;28;20144;-77
2022/04/28 05:17:49;;;;;;;44.30;19.10;;;7.90;99.90;;;;;;5038936;28;20037;-77
2022/04/28 05:20:15;;;;;;;34.67;17.77;;;7.90;99.90;;;;;;5039546;28;20125;-77
2022/04/28 05:22:42;;;;;;;40.40;17.08;;;7.90;99.90;;;;;;5037030;28;20053;-80
2022/04/28 05:25:07;;;;;;;39.90;18.13;;;8.00;99.90;;;;;;5039829;28;20494;-76
2022/04/28 05:27:33;;;;;;;42.72;17.13;;;8.00;99.90;;;;;;5038768;28;20022;-77
2022/04/28 05:29:58;;;;;;;37.33;16.83;;;8.00;99.90;;;;;;5039900;28;20037;-78
2022/04/28 05:32:24;;;;;;;35.10;16.73;;;8.00;99.90;;;;;;5038117;28;20438;-75
2022/04/28 05:34:49;;;;;;;44.83;16.02;;;8.10;99.90;;;;;;5046627;28;20568;-76
2022/04/28 05:37:15;;;;;;;40.80;16.42;;;8.10;99.90;;;;;;5044029;28;20076;-77
2022/04/28 05:39:42;;;;;;;37.95;16.15;;;8.20;99.90;;;;;;5038326;28;20097;-78
2022/04/28 05:42:09;;;;;;;44.42;16.13;;;8.20;99.90;;;;;;5035923;28;20029;-76
2022/04/28 05:47:19;;;;;;;38.20;15.10;;;8.40;99.90;;;;;;5035982;28;20051;-77
2022/04/28 05:49:45;;;;;;;32.92;14.45;;;8.50;99.90;;;;;;5038179;28;20021;-76
2022/04/28 05:52:11;;;;;;;32.05;12.60;;;8.60;99.90;;;;;;5036590;28;20022;-75
2022/04/28 05:54:39;;;;;;;29.17;12.77;;;8.60;99.90;;;;;;5042433;28;20084;-76
2022/04/28 05:57:05;;;;;;;37.08;13.13;;;8.60;99.90;;;;;;5034024;28;20021;-77
2022/04/28 05:59:30;;;;;;;30.58;12.35;;;8.60;99.90;;;;;;5034275;28;20469;-76
2022/04/28 06:01:56;;;;;;;33.28;13.18;;;8.70;99.90;;;;;;5035954;28;20113;-74
2022/04/28 06:04:22;;;;;;;40.97;12.63;;;8.80;99.90;;;;;;5037184;28;20026;-76
2022/04/28 06:06:48;;;;;;;36.72;11.65;;;8.80;99.90;;;;;;5035937;28;20036;-75
2022/04/28 06:09:13;;;;;;;28.10;11.20;;;9.00;99.90;;;;;;5051918;28;20036;-76
2022/04/28 06:11:39;;;;;;;34.55;11.48;;;9.00;99.90;;;;;;5057333;28;20073;-77
2022/04/28 06:14:04;;;;;;;26.77;10.15;;;9.10;99.90;;;;;;5057654;28;20212;-77
2022/04/28 06:16:30;;;;;;;27.45;10.25;;;9.20;99.90;;;;;;5057189;28;20060;-77
2022/04/28 06:18:55;;;;;;;29.50;10.52;;;9.30;99.90;;;;;;5057333;28;20029;-76
2022/04/28 06:21:21;;;;;;;25.35;9.70;;;9.40;99.90;;;;;;5056521;28;20018;-77
2022/04/28 06:23:46;;;;;;;27.33;9.05;;;9.50;99.90;;;;;;5050827;28;20013;-77
2022/04/28 06:26:12;;;;;;;24.95;9.27;;;9.50;99.90;;;;;;5056690;28;20080;-76
2022/04/28 06:28:37;;;;;;;26.33;9.02;;;9.70;99.90;;;;;;5057188;28;20014;-77
2022/04/28 06:31:03;;;;;;;30.98;9.23;;;9.80;99.90;;;;;;5056371;28;20053;-77
2022/04/28 06:33:28;;;;;;;27.35;7.30;;;9.80;99.90;;;;;;5039883;28;20041;-76
2022/04/28 06:35:55;;;;;;;24.77;8.07;;;9.90;99.90;;;;;;5037503;28;20022;-77
2022/04/28 06:38:20;;;;;;;25.98;7.88;;;10.00;99.90;;;;;;5035251;28;20018;-77
2022/04/28 06:40:46;;;;;;;29.25;7.90;;;10.00;99.90;;;;;;5036704;28;20152;-78
2022/04/28 06:43:12;;;;;;;21.65;6.82;;;10.10;99.90;;;;;;5039604;28;20032;-77
2022/04/28 06:46:11;;;;;;;22.17;6.63;;;10.20;99.90;;;;;;5036861;28;20021;-77
2022/04/28 06:48:23;;;;;;;27.42;8.82;;;10.30;99.90;;;;;;5038509;28;20026;-78
2022/04/28 06:50:49;;;;;;;20.30;6.05;;;10.40;99.90;;;;;;5045829;28;20033;-77
2022/04/28 06:53:14;;;;;;;13.73;5.13;;;10.50;99.90;;;;;;5039949;28;20041;-78
2022/04/28 06:55:40;;;;;;;22.75;4.53;;;10.60;99.90;;;;;;5035296;28;20033;-80
2022/04/28 06:58:05;;;;;;;24.23;4.57;;;10.70;99.90;;;;;;5036645;28;20111;-76
2022/04/28 07:00:31;;;;;;;31.00;5.45;;;10.70;99.90;;;;;;5040986;28;20105;-78
2022/04/28 07:02:56;;;;;;;22.83;4.32;;;10.70;99.90;;;;;;5041333;28;20360;-79
2022/04/28 07:05:22;;;;;;;22.48;5.78;;;10.80;99.90;;;;;;5044671;28;20017;-76
2022/04/28 07:07:47;;;;;;;17.15;4.78;;;10.90;99.90;;;;;;5044106;28;20025;-77
2022/04/28 07:10:13;;;;;;;25.23;5.70;;;11.00;99.90;;;;;;5044359;28;20034;-79
2022/04/28 07:12:40;;;;;;;22.30;6.82;;;11.10;99.90;;;;;;5038423;28;20445;-78
2022/04/28 07:15:06;;;;;;;32.97;6.60;;;11.10;99.90;;;;;;5037828;28;20078;-81
2022/04/28 07:17:32;;;;;;;13.27;5.57;;;11.20;99.90;;;;;;5037394;28;20053;-76
2022/04/28 07:19:57;;;;;;;20.67;6.22;;;11.30;99.90;;;;;;5034284;28;20038;-76
2022/04/28 07:22:23;;;;;;;18.30;6.50;;;11.30;99.90;;;;;;5032714;28;20034;-76
2022/04/28 07:24:48;;;;;;;17.33;6.68;;;11.40;99.90;;;;;;5032436;28;20029;-76
2022/04/28 07:27:14;;;;;;;16.20;5.70;;;11.50;99.90;;;;;;5032578;28;20394;-81
2022/04/28 07:29:39;;;;;;;49.72;6.60;;;11.70;99.90;;;;;;5034745;28;20040;-76
2022/04/28 07:32:07;;;;;;;23.55;5.55;;;11.90;99.90;;;;;;5033628;28;20025;-77
2022/04/28 07:34:33;;;;;;;18.15;4.47;;;11.90;99.90;;;;;;5034009;28;20030;-78
2022/04/28 07:36:58;;;;;;;14.40;4.78;;;12.00;99.90;;;;;;5033693;28;20109;-77
2022/04/28 07:39:24;;;;;;;17.50;6.10;;;12.10;99.90;;;;;;5033174;28;20471;-77
2022/04/28 07:41:49;;;;;;;21.55;5.43;;;12.20;99.90;;;;;;5033956;28;20021;-76
2022/04/28 07:44:15;;;;;;;15.63;4.65;;;12.30;99.90;;;;;;5032380;28;20032;-77
2022/04/28 07:46:40;;;;;;;18.60;5.68;;;12.50;99.90;;;;;;5036826;28;20033;-76
2022/04/28 07:49:06;;;;;;;19.02;4.35;;;12.60;99.90;;;;;;5044248;28;20099;-76
2022/04/28 07:51:31;;;;;;;14.60;4.40;;;12.70;99.90;;;;;;5045572;28;20081;-77
2022/04/28 07:53:57;;;;;;;26.63;5.47;;;12.80;99.90;;;;;;5043586;28;20474;-76
2022/04/28 07:56:22;;;;;;;17.02;5.88;;;13.00;99.90;;;;;;5038150;28;20045;-75
2022/04/28 07:58:48;;;;;;;16.77;5.47;;;13.10;99.90;;;;;;5037433;28;20101;-80
2022/04/28 08:01:14;;;;;;;22.63;5.75;;;13.10;99.90;;;;;;5040834;28;20025;-77
2022/04/28 08:03:40;;;;;;;20.58;5.85;;;13.20;99.90;;;;;;5038639;28;20036;-76
2022/04/28 08:06:08;;;;;;;20.92;5.82;;;13.20;99.90;;;;;;5036225;28;20187;-76
2022/04/28 08:08:35;;;;;;;16.88;5.55;;;13.30;99.90;;;;;;5035885;28;20029;-78
2022/04/28 08:11:01;;;;;;;20.42;5.68;;;13.40;99.90;;;;;;5037856;28;20080;-78
2022/04/28 08:13:27;;;;;;;18.77;6.00;;;13.60;99.90;;;;;;5036304;28;20034;-77
2022/04/28 08:15:54;;;;;;;14.10;5.35;;;13.70;99.90;;;;;;5039644;28;20082;-77
2022/04/28 08:18:20;;;;;;;19.58;5.55;;;13.90;99.90;;;;;;5042957;28;20086;-76
2022/04/28 08:20:46;;;;;;;21.67;6.72;;;14.00;99.90;;;;;;5042306;28;20025;-77
2022/04/28 08:23:11;;;;;;;22.75;6.70;;;14.00;99.90;;;;;;5040085;28;20025;-76
2022/04/28 08:25:37;;;;;;;17.88;5.78;;;13.90;99.90;;;;;;5035123;28;20021;-76
2022/04/28 08:28:03;;;;;;;17.70;5.78;;;13.90;99.90;;;;;;5035751;28;20026;-76
2022/04/28 08:30:30;;;;;;;21.75;6.63;;;13.90;99.90;;;;;;5034902;28;20405;-77
2022/04/28 08:32:55;;;;;;;20.92;6.40;;;14.00;99.90;;;;;;5036656;28;20021;-76
2022/04/28 08:35:21;;;;;;;22.77;5.93;;;14.10;99.90;;;;;;5034564;28;20029;-76
2022/04/28 08:37:47;;;;;;;21.15;6.70;;;14.20;99.90;;;;;;5038590;28;20044;-76
2022/04/28 08:40:12;;;;;;;16.77;6.55;;;14.40;99.90;;;;;;5040843;28;20048;-76
2022/04/28 08:42:40;;;;;;;21.92;6.55;;;14.50;99.90;;;;;;5039196;28;20104;-76
2022/04/28 08:45:06;;;;;;;15.02;5.60;;;14.60;99.90;;;;;;5035208;28;20082;-75
2022/04/28 08:47:32;;;;;;;18.33;6.47;;;14.60;99.90;;;;;;5034955;28;20030;-76
2022/04/28 08:49:58;;;;;;;13.38;5.47;;;14.80;99.90;;;;;;5036822;28;20041;-76
2022/04/28 08:52:25;;;;;;;17.38;5.50;;;14.90;99.90;;;;;;5037300;28;20040;-76
2022/04/28 08:54:54;;;;;;;19.98;6.30;;;15.00;99.90;;;;;;5042300;28;20132;-76
2022/04/28 08:57:21;;;;;;;16.33;5.75;;;15.10;99.90;;;;;;5042048;28;20021;-76
2022/04/28 08:59:48;;;;;;;12.27;4.85;;;15.20;99.90;;;;;;5041125;28;20372;-77
2022/04/28 09:02:14;;;;;;;16.42;5.65;;;15.20;99.90;;;;;;5035215;28;20022;-76
2022/04/28 09:04:40;;;;;;;18.80;6.05;;;15.40;99.90;;;;;;5035864;28;20052;-76
2022/04/28 09:07:07;;;;;;;17.98;6.70;;;15.50;99.90;;;;;;5035472;28;20474;-75
2022/04/28 09:09:33;;;;;;;14.88;6.22;;;15.60;99.90;;;;;;5034787;28;20030;-76
2022/04/28 09:12:00;;;;;;;17.00;5.60;;;15.50;99.90;;;;;;5045351;28;20125;-74
2022/04/28 09:14:28;;;;;;;17.80;6.00;;;15.40;99.90;;;;;;5040791;28;20037;-76
2022/04/28 09:17:02;;;;;;;28.90;8.65;;;15.50;99.90;;;;;;5036238;28;20105;-76
2022/04/28 09:19:38;;;;;;;20.63;7.72;;;15.40;99.90;;;;;;5037012;28;20014;-77
2022/04/28 09:22:09;;;;;;;24.55;5.90;;;15.50;99.90;;;;;;5053504;28;20037;-75
2022/04/28 09:24:44;;;;;;;15.13;5.93;;;15.70;99.90;;;;;;5040799;28;20018;-77
2022/04/28 09:27:10;;;;;;;19.67;6.85;;;15.80;99.90;;;;;;5038174;28;20025;-77
2022/04/28 09:29:39;;;;;;;27.50;8.13;;;16.00;99.90;;;;;;5037571;28;20040;-78
2022/04/28 09:32:12;;;;;;;15.38;6.32;;;16.00;99.90;;;;;;5037516;28;20104;-77
2022/04/28 09:34:48;;;;;;;23.50;7.63;;;16.10;99.90;;;;;;5036159;28;20033;-77
2022/04/28 09:37:21;;;;;;;24.98;6.80;;;16.30;99.90;;;;;;5036978;28;20021;-76
2022/04/28 09:42:41;;;;;;;23.98;7.63;;;16.60;99.90;;;;;;5041015;28;20036;-76
2022/04/28 09:45:09;;;;;;;21.13;7.25;;;16.80;99.90;;;;;;5037800;28;20068;-77
2022/04/28 09:47:35;;;;;;;34.83;8.07;;;16.80;99.90;;;;;;5038025;28;20442;-77
2022/04/28 09:50:11;;;;;;;25.58;7.43;;;16.90;99.90;;;;;;5036323;28;20526;-75
2022/04/28 09:52:36;;;;;;;24.95;7.10;;;17.00;99.90;;;;;;5037538;28;20080;-77
2022/04/28 09:55:04;;;;;;;18.05;6.35;;;17.10;99.90;;;;;;5036368;28;20026;-78
2022/04/28 09:57:30;;;;;;;19.42;6.97;;;17.10;99.90;;;;;;5036887;28;20033;-77
2022/04/28 09:59:57;;;;;;;30.00;7.07;;;17.20;99.90;;;;;;5036818;28;20041;-77
2022/04/28 10:02:25;;;;;;;24.50;6.43;;;17.20;99.90;;;;;;5046728;28;20021;-77
2022/04/28 10:04:52;;;;;;;22.40;6.95;;;17.30;99.90;;;;;;5048792;28;20031;-77
2022/04/28 10:07:18;;;;;;;17.00;6.18;;;17.50;99.90;;;;;;5037485;28;20108;-75
2022/04/28 10:09:49;;;;;;;21.73;8.00;;;17.60;99.90;;;;;;5036376;28;20025;-77
2022/04/28 10:12:21;;;;;;;17.17;6.93;;;17.70;99.90;;;;;;5038543;28;20064;-77
2022/04/28 10:14:48;;;;;;;22.50;6.82;;;17.70;99.90;;;;;;5034260;28;20029;-80
2022/04/28 10:17:32;;;;;;;25.00;7.50;;;17.80;99.90;;;;;;5036963;28;20017;-78
2022/04/28 10:20:03;;;;;;;15.02;6.45;;;18.00;99.90;;;;;;5039369;28;20067;-76
2022/04/28 10:22:34;;;;;;;23.98;6.68;;;18.10;99.90;;;;;;5037212;28;20065;-77
2022/04/28 10:33:26;;;;;;;21.48;7.40;;;18.40;99.90;;;;;;5036464;28;20105;-78
2022/04/28 10:35:54;;;;;;;20.15;8.05;;;18.40;99.70;;;;;;5036178;28;20030;-78
2022/04/28 10:38:31;;;;;;;29.45;10.20;;;18.50;99.90;;;;;;5038107;28;20680;-78
2022/04/28 10:41:02;;;;;;;16.63;7.72;;;18.60;99.60;;;;;;5038670;28;20032;-77
2022/04/28 10:43:38;;;;;;;19.10;7.70;;;18.70;99.30;;;;;;5039575;28;20014;-77
2022/04/28 10:46:06;;;;;;;33.78;16.15;;;18.80;98.90;;;;;;5049520;28;20093;-73
2022/04/28 10:48:40;;;;;;;26.48;11.75;;;18.90;98.90;;;;;;5057570;28;20037;-72
2022/04/28 10:51:18;;;;;;;20.73;8.45;;;19.00;98.70;;;;;;5054364;28;20033;-77
2022/04/28 10:53:58;;;;;;;20.27;7.07;;;19.20;98.40;;;;;;5054201;28;20055;-74
2022/04/28 10:56:30;;;;;;;27.75;6.82;;;19.30;97.90;;;;;;5057741;28;20018;-76
2022/04/28 10:58:59;;;;;;;31.00;11.30;;;19.40;97.10;;;;;;5056825;28;20017;-73
2022/04/28 11:01:32;;;;;;;16.83;7.13;;;19.50;96.90;;;;;;5056370;28;20033;-73
2022/04/28 11:04:01;;;;;;;21.17;7.95;;;19.70;96.80;;;;;;5057415;28;20036;-74
2022/04/28 11:06:37;;;;;;;17.58;7.75;;;19.70;96.40;;;;;;5055856;28;20018;-78
2022/04/28 11:09:04;;;;;;;19.17;6.78;;;19.90;96.60;;;;;;5047059;28;20056;-78
2022/04/28 11:11:45;;;;;;;18.70;7.57;;;20.00;96.50;;;;;;5035632;28;20033;-77
2022/04/28 11:14:11;;;;;;;16.95;7.50;;;20.10;95.90;;;;;;5036156;28;20121;-77
2022/04/28 11:16:40;;;;;;;19.02;7.68;;;20.20;95.20;;;;;;5037772;28;20172;-78
2022/04/28 11:19:07;;;;;;;17.67;7.82;;;20.30;95.00;;;;;;5037339;28;20537;-77
2022/04/28 11:21:34;;;;;;;24.58;8.50;;;20.20;94.80;;;;;;5039073;28;20021;-78
2022/04/28 11:23:59;;;;;;;15.27;6.93;;;20.00;94.10;;;;;;5040936;28;20049;-77
2022/04/28 11:26:27;;;;;;;15.60;7.20;;;19.90;93.90;;;;;;5043766;28;20150;-78
2022/04/28 11:28:52;;;;;;;17.75;7.32;;;19.90;93.30;;;;;;5035874;28;20087;-77
2022/04/28 11:31:19;;;;;;;18.67;7.47;;;20.10;94.00;;;;;;5038890;28;20366;-77
2022/04/28 11:33:47;;;;;;;18.42;7.22;;;20.10;93.30;;;;;;5040676;28;20034;-79
2022/04/28 11:36:18;;;;;;;25.23;8.13;;;20.30;93.30;;;;;;5040309;28;20018;-79
2022/04/28 11:38:59;;;;;;;20.42;8.32;;;20.30;92.60;;;;;;5041036;28;20515;-79
2022/04/28 11:41:40;;;;;;;15.57;6.88;;;20.20;91.90;;;;;;5040784;28;20025;-77
2022/04/28 11:44:13;;;;;;;16.73;7.47;;;20.30;92.50;;;;;;5038720;28;20022;-78
2022/04/28 11:46:49;;;;;;;19.63;7.85;;;20.50;92.60;;;;;;5038520;28;20032;-80
2022/04/28 11:49:17;;;;;;;20.40;7.80;;;20.40;92.30;;;;;;5037540;28;20145;-77
2022/04/28 11:51:42;;;;;;;21.83;8.40;;;20.40;92.40;;;;;;5038445;28;20025;-77
2022/04/28 11:54:23;;;;;;;24.60;8.23;;;20.40;92.40;;;;;;5038451;28;20048;-75
2022/04/28 11:56:49;;;;;;;27.92;9.15;;;20.40;92.40;;;;;;5039934;28;20418;-77
2022/04/28 11:59:15;;;;;;;26.05;8.38;;;20.50;92.10;;;;;;5039836;28;20025;-77
2022/04/28 12:01:42;;;;;;;27.42;9.23;;;20.70;92.00;;;;;;5037288;28;20022;-78
2022/04/28 12:04:08;;;;;;;24.17;8.70;;;20.70;91.60;;;;;;5038587;28;20028;-76
2022/04/28 12:06:34;;;;;;;28.23;11.57;;;20.50;91.50;;;;;;5036437;28;20378;-75
2022/04/28 12:14:22;;;;;;;17.38;8.15;;;20.60;90.90;;;;;;5036952;28;20040;-75
2022/04/28 12:14:32;;;;;;;22.42;9.02;;;20.70;90.20;;;;;;5045205;28;20519;-75
2022/04/28 12:19:50;;;;;;;16.02;8.00;;;20.60;89.60;;;;;;5035957;28;20112;-75
2022/04/28 12:22:30;;;;;;;20.58;8.80;;;20.90;90.20;;;;;;5035274;28;20117;-76
2022/04/28 12:25:05;;;;;;;20.02;8.38;;;20.80;89.10;;;;;;5034934;28;20101;-75
2022/04/28 12:27:57;;;;;;;17.05;8.27;;;20.70;88.30;;;;;;5034676;28;20025;-75
2022/04/28 12:30:23;;;;;;;14.13;7.93;;;20.90;89.60;;;;;;5030883;28;20100;-75
2022/04/28 12:32:51;;;;;;;18.33;8.32;;;21.50;93.20;;;;;;5034899;28;20041;-75
2022/04/28 12:35:24;;;;;;;14.35;7.72;;;21.50;86.30;;;;;;5035047;28;20623;-74
2022/04/28 12:38:01;;;;;;;14.65;7.63;;;21.50;86.70;;;;;;5017726;28;20443;-76
2022/04/28 12:40:36;;;;;;;13.63;7.38;;;21.90;85.60;;;;;;5035186;28;20021;-76
2022/04/28 12:43:02;;;;;;;15.73;6.82;;;22.70;82.30;;;;;;5034873;28;20079;-76
2022/04/28 12:45:41;;;;;;;13.38;6.13;;;23.90;77.60;;;;;;5035377;28;20030;-76
2022/04/28 12:48:26;;;;;;;16.33;6.82;;;24.60;76.00;;;;;;5036677;28;20086;-76
2022/04/28 12:51:09;;;;;;;34.33;21.85;;;25.20;71.20;;;;;;5037628;28;20398;-76
2022/04/28 12:53:35;;;;;;;11.65;6.60;;;25.70;67.20;;;;;;5037204;28;20026;-74
2022/04/28 12:56:09;;;;;;;14.30;7.55;;;25.60;66.60;;;;;;5035307;28;20033;-75
2022/04/28 12:58:48;;;;;;;16.63;7.93;;;25.90;66.50;;;;;;5034423;28;20080;-73
2022/04/28 13:01:19;;;;;;;11.25;7.22;;;26.00;65.50;;;;;;5034749;28;20025;-75
2022/04/28 13:04:20;;;;;;;18.60;6.93;;;26.30;64.20;;;;;;5034182;28;20037;-73
2022/04/28 13:06:46;;;;;;;20.92;7.97;;;27.00;62.00;;;;;;5036395;28;20018;-75
2022/04/28 13:09:15;;;;;;;20.73;8.13;;;;;;;;;;5037937;28;20130;-77
2022/04/28 13:11:41;;;;;;;16.85;7.63;;;;;;;;;;5036983;28;20018;-77
2022/04/28 13:14:10;;;;;;;16.05;6.90;;;27.30;59.70;;;;;;5016724;28;20478;-76